sensor_id;sensor_type;location;lat;lon;timestamp;temperature;humidity
15483;DHT22;7843;50.330;7.312;2024-03-02T00:00:31;7.10;98.70
15483;DHT22;7843;50.330;7.312;2024-03-02T00:02:58;7.10;98.60
15483;DHT22;7843;50.330;7.312;2024-03-02T00:05:25;7.10;98.50
15483;DHT22;7843;50.330;7.312;2024-03-02T00:07:57;7.10;98.40
15483;DHT22;7843;50.330;7.312;2024-03-02T00:10:35;7.10;98.30
15483;DHT22;7843;50.330;7.312;2024-03-02T00:13:03;7.10;98.20
15483;DHT22;7843;50.330;7.312;2024-03-02T00:15:40;7.10;98.20
15483;DHT22;7843;50.330;7.312;2024-03-02T00:18:18;7.10;98.30
15483;DHT22;7843;50.330;7.312;2024-03-02T00:20:45;7.10;98.20
15483;DHT22;7843;50.330;7.312;2024-03-02T00:23:15;7.10;98.20
15483;DHT22;7843;50.330;7.312;2024-03-02T00:25:53;7.10;98.20
15483;DHT22;7843;50.330;7.312;2024-03-02T00:28:34;7.10;98.10
15483;DHT22;7843;50.330;7.312;2024-03-02T00:31:12;7.20;98.00
15483;DHT22;7843;50.330;7.312;2024-03-02T00:33:45;7.20;97.80
15483;DHT22;7843;50.330;7.312;2024-03-02T00:36:14;7.20;97.80
15483;DHT22;7843;50.330;7.312;2024-03-02T00:38:46;7.20;97.80
15483;DHT22;7843;50.330;7.312;2024-03-02T00:41:27;7.20;97.80
15483;DHT22;7843;50.330;7.312;2024-03-02T00:44:06;7.20;97.40
15483;DHT22;7843;50.330;7.312;2024-03-02T00:46:38;7.20;97.20
15483;DHT22;7843;50.330;7.312;2024-03-02T00:51:38;7.10;97.50
15483;DHT22;7843;50.330;7.312;2024-03-02T00:54:07;7.10;97.60
15483;DHT22;7843;50.330;7.312;2024-03-02T00:56:34;7.10;97.50
15483;DHT22;7843;50.330;7.312;2024-03-02T00:59:01;6.90;97.80
15483;DHT22;7843;50.330;7.312;2024-03-02T01:01:28;6.90;98.00
15483;DHT22;7843;50.330;7.312;2024-03-02T01:03:55;6.80;98.10
15483;DHT22;7843;50.330;7.312;2024-03-02T01:06:22;6.70;98.30
15483;DHT22;7843;50.330;7.312;2024-03-02T01:08:49;6.60;98.40
15483;DHT22;7843;50.330;7.312;2024-03-02T01:11:18;6.60;98.40
15483;DHT22;7843;50.330;7.312;2024-03-02T01:13:45;6.60;98.30
15483;DHT22;7843;50.330;7.312;2024-03-02T01:16:13;6.60;98.50
15483;DHT22;7843;50.330;7.312;2024-03-02T01:18:39;6.60;98.40
15483;DHT22;7843;50.330;7.312;2024-03-02T01:21:06;6.50;98.40
15483;DHT22;7843;50.330;7.312;2024-03-02T01:23:33;6.60;98.20
15483;DHT22;7843;50.330;7.312;2024-03-02T01:26:00;6.60;98.20
15483;DHT22;7843;50.330;7.312;2024-03-02T01:28:26;6.60;98.30
15483;DHT22;7843;50.330;7.312;2024-03-02T01:30:54;6.60;98.20
15483;DHT22;7843;50.330;7.312;2024-03-02T01:33:21;6.50;98.20
15483;DHT22;7843;50.330;7.312;2024-03-02T01:35:47;6.50;98.20
15483;DHT22;7843;50.330;7.312;2024-03-02T01:38:14;6.50;98.00
15483;DHT22;7843;50.330;7.312;2024-03-02T01:40:42;6.50;98.20
15483;DHT22;7843;50.330;7.312;2024-03-02T01:43:11;6.40;98.60
15483;DHT22;7843;50.330;7.312;2024-03-02T01:45:37;6.40;98.80
15483;DHT22;7843;50.330;7.312;2024-03-02T01:48:05;6.40;98.80
15483;DHT22;7843;50.330;7.312;2024-03-02T01:50:33;6.50;98.50
15483;DHT22;7843;50.330;7.312;2024-03-02T01:53:00;6.50;98.30
15483;DHT22;7843;50.330;7.312;2024-03-02T01:55:29;6.50;98.40
15483;DHT22;7843;50.330;7.312;2024-03-02T01:57:57;6.50;98.50
15483;DHT22;7843;50.330;7.312;2024-03-02T02:00:24;6.50;98.40
15483;DHT22;7843;50.330;7.312;2024-03-02T02:02:53;6.50;98.30
15483;DHT22;7843;50.330;7.312;2024-03-02T02:05:20;6.50;98.10
15483;DHT22;7843;50.330;7.312;2024-03-02T02:07:47;6.40;98.20
15483;DHT22;7843;50.330;7.312;2024-03-02T02:10:14;6.30;98.30
15483;DHT22;7843;50.330;7.312;2024-03-02T02:12:40;6.30;98.40
15483;DHT22;7843;50.330;7.312;2024-03-02T02:15:26;6.30;98.30
15483;DHT22;7843;50.330;7.312;2024-03-02T02:17:54;6.30;98.40
15483;DHT22;7843;50.330;7.312;2024-03-02T02:20:21;6.30;98.50
15483;DHT22;7843;50.330;7.312;2024-03-02T02:22:58;6.30;98.50
15483;DHT22;7843;50.330;7.312;2024-03-02T02:25:25;6.30;98.40
15483;DHT22;7843;50.330;7.312;2024-03-02T02:27:53;6.30;98.40
15483;DHT22;7843;50.330;7.312;2024-03-02T02:30:24;6.30;98.40
15483;DHT22;7843;50.330;7.312;2024-03-02T02:32:51;6.30;98.40
15483;DHT22;7843;50.330;7.312;2024-03-02T02:35:18;6.20;98.50
15483;DHT22;7843;50.330;7.312;2024-03-02T02:37:48;6.20;98.60
15483;DHT22;7843;50.330;7.312;2024-03-02T02:40:16;6.10;98.70
15483;DHT22;7843;50.330;7.312;2024-03-02T02:42:43;6.10;98.60
15483;DHT22;7843;50.330;7.312;2024-03-02T02:45:09;6.00;98.70
15483;DHT22;7843;50.330;7.312;2024-03-02T02:47:37;6.00;98.80
15483;DHT22;7843;50.330;7.312;2024-03-02T02:50:06;6.00;99.00
15483;DHT22;7843;50.330;7.312;2024-03-02T02:52:37;5.90;99.10
15483;DHT22;7843;50.330;7.312;2024-03-02T02:55:07;5.90;99.20
15483;DHT22;7843;50.330;7.312;2024-03-02T02:57:35;5.80;99.30
15483;DHT22;7843;50.330;7.312;2024-03-02T03:00:14;5.80;99.40
15483;DHT22;7843;50.330;7.312;2024-03-02T03:02:42;5.90;99.30
15483;DHT22;7843;50.330;7.312;2024-03-02T03:05:10;5.80;99.40
15483;DHT22;7843;50.330;7.312;2024-03-02T03:07:39;5.80;99.40
15483;DHT22;7843;50.330;7.312;2024-03-02T03:10:07;5.70;99.60
15483;DHT22;7843;50.330;7.312;2024-03-02T03:12:34;5.70;99.80
15483;DHT22;7843;50.330;7.312;2024-03-02T03:15:02;5.60;99.90
15483;DHT22;7843;50.330;7.312;2024-03-02T03:17:31;5.60;99.90
15483;DHT22;7843;50.330;7.312;2024-03-02T03:19:57;5.70;99.90
15483;DHT22;7843;50.330;7.312;2024-03-02T03:22:24;5.60;99.90
15483;DHT22;7843;50.330;7.312;2024-03-02T03:24:51;5.60;99.90
15483;DHT22;7843;50.330;7.312;2024-03-02T03:27:18;5.60;99.90
15483;DHT22;7843;50.330;7.312;2024-03-02T03:29:46;5.50;99.90
15483;DHT22;7843;50.330;7.312;2024-03-02T03:32:13;5.50;99.90
15483;DHT22;7843;50.330;7.312;2024-03-02T03:34:40;5.50;99.90
15483;DHT22;7843;50.330;7.312;2024-03-02T03:37:07;5.60;99.90
15483;DHT22;7843;50.330;7.312;2024-03-02T03:39:34;5.70;99.90
15483;DHT22;7843;50.330;7.312;2024-03-02T03:42:02;5.80;99.90
15483;DHT22;7843;50.330;7.312;2024-03-02T03:44:29;5.80;99.90
15483;DHT22;7843;50.330;7.312;2024-03-02T03:46:56;5.80;99.90
15483;DHT22;7843;50.330;7.312;2024-03-02T03:49:23;5.90;99.90
15483;DHT22;7843;50.330;7.312;2024-03-02T03:51:49;5.90;99.90
15483;DHT22;7843;50.330;7.312;2024-03-02T03:54:16;5.90;99.90
15483;DHT22;7843;50.330;7.312;2024-03-02T03:56:43;5.90;99.90
15483;DHT22;7843;50.330;7.312;2024-03-02T03:59:09;5.90;99.90
15483;DHT22;7843;50.330;7.312;2024-03-02T04:01:37;5.80;99.90
15483;DHT22;7843;50.330;7.312;2024-03-02T04:04:04;5.80;99.90
15483;DHT22;7843;50.330;7.312;2024-03-02T04:06:30;5.80;99.90
15483;DHT22;7843;50.330;7.312;2024-03-02T04:08:57;5.80;99.90
15483;DHT22;7843;50.330;7.312;2024-03-02T04:11:24;5.80;99.90
15483;DHT22;7843;50.330;7.312;2024-03-02T04:13:50;5.80;99.90
15483;DHT22;7843;50.330;7.312;2024-03-02T04:16:17;5.80;99.90
15483;DHT22;7843;50.330;7.312;2024-03-02T04:18:44;5.70;99.90
15483;DHT22;7843;50.330;7.312;2024-03-02T04:21:10;5.70;99.90
15483;DHT22;7843;50.330;7.312;2024-03-02T04:23:38;5.60;99.90
15483;DHT22;7843;50.330;7.312;2024-03-02T04:26:04;5.60;99.90
15483;DHT22;7843;50.330;7.312;2024-03-02T04:28:31;5.50;99.90
15483;DHT22;7843;50.330;7.312;2024-03-02T04:30:58;5.50;99.90
15483;DHT22;7843;50.330;7.312;2024-03-02T04:33:25;5.50;99.90
15483;DHT22;7843;50.330;7.312;2024-03-02T04:35:51;5.40;99.90
15483;DHT22;7843;50.330;7.312;2024-03-02T04:38:18;5.50;99.90
15483;DHT22;7843;50.330;7.312;2024-03-02T04:40:45;5.50;99.90
15483;DHT22;7843;50.330;7.312;2024-03-02T04:43:11;5.60;99.90
15483;DHT22;7843;50.330;7.312;2024-03-02T04:45:42;5.60;99.90
15483;DHT22;7843;50.330;7.312;2024-03-02T04:48:09;5.60;99.90
15483;DHT22;7843;50.330;7.312;2024-03-02T04:50:36;5.60;99.90
15483;DHT22;7843;50.330;7.312;2024-03-02T04:53:03;5.60;99.90
15483;DHT22;7843;50.330;7.312;2024-03-02T04:55:29;5.60;99.90
15483;DHT22;7843;50.330;7.312;2024-03-02T04:58:22;5.60;99.90
15483;DHT22;7843;50.330;7.312;2024-03-02T05:00:48;5.60;99.90
15483;DHT22;7843;50.330;7.312;2024-03-02T05:03:15;5.60;99.90
15483;DHT22;7843;50.330;7.312;2024-03-02T05:05:42;5.60;99.90
15483;DHT22;7843;50.330;7.312;2024-03-02T05:08:09;5.60;99.90
15483;DHT22;7843;50.330;7.312;2024-03-02T05:10:38;5.60;99.90
15483;DHT22;7843;50.330;7.312;2024-03-02T05:13:05;5.60;99.90
15483;DHT22;7843;50.330;7.312;2024-03-02T05:15:32;5.80;99.90
15483;DHT22;7843;50.330;7.312;2024-03-02T05:17:58;5.80;99.90
15483;DHT22;7843;50.330;7.312;2024-03-02T05:20:26;5.90;99.90
15483;DHT22;7843;50.330;7.312;2024-03-02T05:22:52;5.90;99.90
15483;DHT22;7843;50.330;7.312;2024-03-02T05:25:19;5.90;99.90
15483;DHT22;7843;50.330;7.312;2024-03-02T05:27:46;5.90;99.90
15483;DHT22;7843;50.330;7.312;2024-03-02T05:30:13;5.90;99.90
15483;DHT22;7843;50.330;7.312;2024-03-02T05:32:40;5.90;99.90
15483;DHT22;7843;50.330;7.312;2024-03-02T05:35:07;5.90;99.90
15483;DHT22;7843;50.330;7.312;2024-03-02T05:37:34;5.90;99.90
15483;DHT22;7843;50.330;7.312;2024-03-02T05:40:01;5.90;99.90
15483;DHT22;7843;50.330;7.312;2024-03-02T05:42:28;5.90;99.90
15483;DHT22;7843;50.330;7.312;2024-03-02T05:44:54;5.90;99.90
15483;DHT22;7843;50.330;7.312;2024-03-02T05:47:21;5.90;99.90
15483;DHT22;7843;50.330;7.312;2024-03-02T05:49:48;5.80;99.90
15483;DHT22;7843;50.330;7.312;2024-03-02T05:52:14;5.80;99.90
15483;DHT22;7843;50.330;7.312;2024-03-02T05:54:41;5.80;99.90
15483;DHT22;7843;50.330;7.312;2024-03-02T05:57:08;5.70;99.90
15483;DHT22;7843;50.330;7.312;2024-03-02T05:59:53;5.70;99.90
15483;DHT22;7843;50.330;7.312;2024-03-02T06:02:20;5.60;99.90
15483;DHT22;7843;50.330;7.312;2024-03-02T06:04:47;5.60;99.90
15483;DHT22;7843;50.330;7.312;2024-03-02T06:07:13;5.60;99.90
15483;DHT22;7843;50.330;7.312;2024-03-02T06:09:41;5.50;99.90
15483;DHT22;7843;50.330;7.312;2024-03-02T06:12:07;5.50;99.90
15483;DHT22;7843;50.330;7.312;2024-03-02T06:14:34;5.50;99.90
15483;DHT22;7843;50.330;7.312;2024-03-02T06:17:01;5.50;99.90
15483;DHT22;7843;50.330;7.312;2024-03-02T06:19:27;5.40;99.90
15483;DHT22;7843;50.330;7.312;2024-03-02T06:21:54;5.40;99.90
15483;DHT22;7843;50.330;7.312;2024-03-02T06:24:21;5.40;99.90
15483;DHT22;7843;50.330;7.312;2024-03-02T06:26:48;5.40;99.90
15483;DHT22;7843;50.330;7.312;2024-03-02T06:29:14;5.30;99.90
15483;DHT22;7843;50.330;7.312;2024-03-02T06:31:41;5.40;99.90
15483;DHT22;7843;50.330;7.312;2024-03-02T06:34:08;5.40;99.90
15483;DHT22;7843;50.330;7.312;2024-03-02T06:36:35;5.40;99.90
15483;DHT22;7843;50.330;7.312;2024-03-02T06:39:01;5.50;99.90
15483;DHT22;7843;50.330;7.312;2024-03-02T06:41:28;5.60;99.90
15483;DHT22;7843;50.330;7.312;2024-03-02T06:43:55;5.70;99.90
15483;DHT22;7843;50.330;7.312;2024-03-02T06:46:26;5.80;99.90
15483;DHT22;7843;50.330;7.312;2024-03-02T06:48:52;5.90;99.90
15483;DHT22;7843;50.330;7.312;2024-03-02T06:51:19;6.00;99.90
15483;DHT22;7843;50.330;7.312;2024-03-02T06:53:46;6.10;99.90
15483;DHT22;7843;50.330;7.312;2024-03-02T06:56:13;6.10;99.90
15483;DHT22;7843;50.330;7.312;2024-03-02T06:58:40;6.20;99.90
15483;DHT22;7843;50.330;7.312;2024-03-02T07:01:06;6.20;99.90
15483;DHT22;7843;50.330;7.312;2024-03-02T07:03:33;6.20;99.90
15483;DHT22;7843;50.330;7.312;2024-03-02T07:06:00;6.20;99.90
15483;DHT22;7843;50.330;7.312;2024-03-02T07:08:27;6.20;99.90
15483;DHT22;7843;50.330;7.312;2024-03-02T07:10:53;6.20;99.90
15483;DHT22;7843;50.330;7.312;2024-03-02T07:13:20;6.10;99.90
15483;DHT22;7843;50.330;7.312;2024-03-02T07:15:47;6.10;99.90
15483;DHT22;7843;50.330;7.312;2024-03-02T07:18:32;6.10;99.90
15483;DHT22;7843;50.330;7.312;2024-03-02T07:21:00;6.10;99.90
15483;DHT22;7843;50.330;7.312;2024-03-02T07:23:27;6.10;99.90
15483;DHT22;7843;50.330;7.312;2024-03-02T07:25:54;6.10;99.90
15483;DHT22;7843;50.330;7.312;2024-03-02T07:28:26;6.10;99.90
15483;DHT22;7843;50.330;7.312;2024-03-02T07:31:00;6.10;99.90
15483;DHT22;7843;50.330;7.312;2024-03-02T07:33:27;6.10;99.90
15483;DHT22;7843;50.330;7.312;2024-03-02T07:35:54;6.20;99.90
15483;DHT22;7843;50.330;7.312;2024-03-02T07:38:27;6.20;99.90
15483;DHT22;7843;50.330;7.312;2024-03-02T07:40:54;6.20;99.90
15483;DHT22;7843;50.330;7.312;2024-03-02T07:43:22;6.30;99.90
15483;DHT22;7843;50.330;7.312;2024-03-02T07:45:48;6.30;99.90
15483;DHT22;7843;50.330;7.312;2024-03-02T07:48:15;6.40;99.90
15483;DHT22;7843;50.330;7.312;2024-03-02T07:50:42;6.60;99.90
15483;DHT22;7843;50.330;7.312;2024-03-02T07:53:09;6.60;99.90
15483;DHT22;7843;50.330;7.312;2024-03-02T07:55:36;6.80;99.90
15483;DHT22;7843;50.330;7.312;2024-03-02T07:58:03;6.90;99.90
15483;DHT22;7843;50.330;7.312;2024-03-02T08:00:30;7.00;99.90
15483;DHT22;7843;50.330;7.312;2024-03-02T08:02:56;7.10;99.80
15483;DHT22;7843;50.330;7.312;2024-03-02T08:05:23;7.30;99.10
15483;DHT22;7843;50.330;7.312;2024-03-02T08:07:50;7.50;98.50
15483;DHT22;7843;50.330;7.312;2024-03-02T08:10:19;7.50;98.00
15483;DHT22;7843;50.330;7.312;2024-03-02T08:12:46;7.50;97.70
15483;DHT22;7843;50.330;7.312;2024-03-02T08:15:13;7.60;97.70
15483;DHT22;7843;50.330;7.312;2024-03-02T08:17:40;7.60;97.70
15483;DHT22;7843;50.330;7.312;2024-03-02T08:20:12;7.60;97.40
15483;DHT22;7843;50.330;7.312;2024-03-02T08:22:39;7.60;97.20
15483;DHT22;7843;50.330;7.312;2024-03-02T08:25:07;7.70;96.90
15483;DHT22;7843;50.330;7.312;2024-03-02T08:27:34;7.70;96.40
15483;DHT22;7843;50.330;7.312;2024-03-02T08:30:01;7.80;96.40
15483;DHT22;7843;50.330;7.312;2024-03-02T08:32:30;7.90;96.00
15483;DHT22;7843;50.330;7.312;2024-03-02T08:34:56;8.00;96.00
15483;DHT22;7843;50.330;7.312;2024-03-02T08:37:23;8.00;96.00
15483;DHT22;7843;50.330;7.312;2024-03-02T08:39:50;8.00;95.50
15483;DHT22;7843;50.330;7.312;2024-03-02T08:42:17;8.10;95.40
15483;DHT22;7843;50.330;7.312;2024-03-02T08:44:44;8.20;95.00
15483;DHT22;7843;50.330;7.312;2024-03-02T08:47:11;8.20;95.00
15483;DHT22;7843;50.330;7.312;2024-03-02T08:49:37;8.30;94.90
15483;DHT22;7843;50.330;7.312;2024-03-02T08:52:04;8.40;94.70
15483;DHT22;7843;50.330;7.312;2024-03-02T08:54:31;8.50;94.70
15483;DHT22;7843;50.330;7.312;2024-03-02T08:56:59;8.50;94.20
15483;DHT22;7843;50.330;7.312;2024-03-02T08:59:26;8.60;94.50
15483;DHT22;7843;50.330;7.312;2024-03-02T09:01:54;8.70;94.20
15483;DHT22;7843;50.330;7.312;2024-03-02T09:04:21;8.80;94.20
15483;DHT22;7843;50.330;7.312;2024-03-02T09:06:49;8.90;94.20
15483;DHT22;7843;50.330;7.312;2024-03-02T09:09:16;9.00;93.80
15483;DHT22;7843;50.330;7.312;2024-03-02T09:11:42;9.10;93.50
15483;DHT22;7843;50.330;7.312;2024-03-02T09:14:09;9.10;93.30
15483;DHT22;7843;50.330;7.312;2024-03-02T09:16:36;9.20;93.50
15483;DHT22;7843;50.330;7.312;2024-03-02T09:19:03;9.20;93.10
15483;DHT22;7843;50.330;7.312;2024-03-02T09:21:30;9.30;93.40
15483;DHT22;7843;50.330;7.312;2024-03-02T09:23:56;9.40;93.20
15483;DHT22;7843;50.330;7.312;2024-03-02T09:26:23;9.50;92.40
15483;DHT22;7843;50.330;7.312;2024-03-02T09:28:51;9.50;92.90
15483;DHT22;7843;50.330;7.312;2024-03-02T09:31:17;9.60;92.70
15483;DHT22;7843;50.330;7.312;2024-03-02T09:33:44;9.70;92.90
15483;DHT22;7843;50.330;7.312;2024-03-02T09:36:21;9.80;92.50
15483;DHT22;7843;50.330;7.312;2024-03-02T09:38:48;9.80;91.80
15483;DHT22;7843;50.330;7.312;2024-03-02T09:41:15;9.80;92.00
15483;DHT22;7843;50.330;7.312;2024-03-02T09:43:42;9.90;91.40
15483;DHT22;7843;50.330;7.312;2024-03-02T09:46:09;9.90;91.40
15483;DHT22;7843;50.330;7.312;2024-03-02T09:48:37;10.00;91.70
15483;DHT22;7843;50.330;7.312;2024-03-02T09:51:05;10.10;91.60
15483;DHT22;7843;50.330;7.312;2024-03-02T09:53:32;10.20;91.70
15483;DHT22;7843;50.330;7.312;2024-03-02T09:56:00;10.30;91.00
15483;DHT22;7843;50.330;7.312;2024-03-02T09:58:27;10.30;91.20
15483;DHT22;7843;50.330;7.312;2024-03-02T10:00:54;10.40;91.10
15483;DHT22;7843;50.330;7.312;2024-03-02T10:03:22;10.50;90.80
15483;DHT22;7843;50.330;7.312;2024-03-02T10:05:51;10.60;90.50
15483;DHT22;7843;50.330;7.312;2024-03-02T10:08:18;10.50;90.60
15483;DHT22;7843;50.330;7.312;2024-03-02T10:10:45;10.60;90.20
15483;DHT22;7843;50.330;7.312;2024-03-02T10:13:13;10.60;90.00
15483;DHT22;7843;50.330;7.312;2024-03-02T10:15:41;10.60;90.00
15483;DHT22;7843;50.330;7.312;2024-03-02T10:18:11;10.90;89.70
15483;DHT22;7843;50.330;7.312;2024-03-02T10:20:40;11.10;89.80
15483;DHT22;7843;50.330;7.312;2024-03-02T10:23:14;11.40;89.50
15483;DHT22;7843;50.330;7.312;2024-03-02T10:25:43;11.70;88.40
15483;DHT22;7843;50.330;7.312;2024-03-02T10:28:12;11.90;88.00
15483;DHT22;7843;50.330;7.312;2024-03-02T10:30:39;12.00;87.70
15483;DHT22;7843;50.330;7.312;2024-03-02T10:33:06;12.30;87.50
15483;DHT22;7843;50.330;7.312;2024-03-02T10:35:33;12.30;86.20
15483;DHT22;7843;50.330;7.312;2024-03-02T10:38:04;12.20;86.30
15483;DHT22;7843;50.330;7.312;2024-03-02T10:40:32;12.10;86.50
15483;DHT22;7843;50.330;7.312;2024-03-02T10:42:59;12.10;86.70
15483;DHT22;7843;50.330;7.312;2024-03-02T10:45:29;12.10;86.60
15483;DHT22;7843;50.330;7.312;2024-03-02T10:47:55;12.10;86.90
15483;DHT22;7843;50.330;7.312;2024-03-02T10:50:24;12.10;87.00
15483;DHT22;7843;50.330;7.312;2024-03-02T10:52:51;12.10;87.30
15483;DHT22;7843;50.330;7.312;2024-03-02T10:55:18;12.30;87.30
15483;DHT22;7843;50.330;7.312;2024-03-02T10:57:54;12.40;86.80
15483;DHT22;7843;50.330;7.312;2024-03-02T11:00:24;12.60;86.70
15483;DHT22;7843;50.330;7.312;2024-03-02T11:02:58;12.70;86.10
15483;DHT22;7843;50.330;7.312;2024-03-02T11:08:02;13.00;86.00
15483;DHT22;7843;50.330;7.312;2024-03-02T11:10:57;13.20;85.90
15483;DHT22;7843;50.330;7.312;2024-03-02T11:13:33;13.20;84.90
15483;DHT22;7843;50.330;7.312;2024-03-02T11:16:08;13.00;84.90
15483;DHT22;7843;50.330;7.312;2024-03-02T11:18:37;12.70;85.30
15483;DHT22;7843;50.330;7.312;2024-03-02T11:21:05;12.70;85.90
15483;DHT22;7843;50.330;7.312;2024-03-02T11:23:33;12.70;86.30
15483;DHT22;7843;50.330;7.312;2024-03-02T11:26:22;12.60;85.90
15483;DHT22;7843;50.330;7.312;2024-03-02T11:28:54;12.60;86.20
15483;DHT22;7843;50.330;7.312;2024-03-02T11:31:22;12.80;86.20
15483;DHT22;7843;50.330;7.312;2024-03-02T11:33:49;12.90;86.30
15483;DHT22;7843;50.330;7.312;2024-03-02T11:36:16;13.20;85.40
15483;DHT22;7843;50.330;7.312;2024-03-02T11:38:43;13.20;84.90
15483;DHT22;7843;50.330;7.312;2024-03-02T11:41:12;13.20;85.00
15483;DHT22;7843;50.330;7.312;2024-03-02T11:43:42;13.20;85.20
15483;DHT22;7843;50.330;7.312;2024-03-02T11:46:10;13.40;85.00
15483;DHT22;7843;50.330;7.312;2024-03-02T11:48:39;13.50;84.40
15483;DHT22;7843;50.330;7.312;2024-03-02T11:51:06;13.50;84.40
15483;DHT22;7843;50.330;7.312;2024-03-02T11:53:33;13.80;84.30
15483;DHT22;7843;50.330;7.312;2024-03-02T11:56:02;13.90;83.60
15483;DHT22;7843;50.330;7.312;2024-03-02T11:58:29;14.00;83.30
15483;DHT22;7843;50.330;7.312;2024-03-02T12:00:56;14.10;81.80
15483;DHT22;7843;50.330;7.312;2024-03-02T12:03:25;14.00;82.10
15483;DHT22;7843;50.330;7.312;2024-03-02T12:05:53;14.10;81.90
15483;DHT22;7843;50.330;7.312;2024-03-02T12:08:21;14.10;82.00
15483;DHT22;7843;50.330;7.312;2024-03-02T12:11:01;14.20;82.60
15483;DHT22;7843;50.330;7.312;2024-03-02T12:13:28;14.60;81.40
15483;DHT22;7843;50.330;7.312;2024-03-02T12:15:56;15.00;80.30
15483;DHT22;7843;50.330;7.312;2024-03-02T12:18:23;14.90;79.60
15483;DHT22;7843;50.330;7.312;2024-03-02T12:20:53;14.70;79.80
15483;DHT22;7843;50.330;7.312;2024-03-02T12:23:23;14.60;81.00
15483;DHT22;7843;50.330;7.312;2024-03-02T12:25:50;14.90;80.80
15483;DHT22;7843;50.330;7.312;2024-03-02T12:28:17;15.20;80.00
15483;DHT22;7843;50.330;7.312;2024-03-02T12:30:44;15.20;79.50
15483;DHT22;7843;50.330;7.312;2024-03-02T12:33:11;15.20;79.80
15483;DHT22;7843;50.330;7.312;2024-03-02T12:35:38;14.90;79.60
15483;DHT22;7843;50.330;7.312;2024-03-02T12:38:06;14.70;80.40
15483;DHT22;7843;50.330;7.312;2024-03-02T12:40:32;14.70;80.10
15483;DHT22;7843;50.330;7.312;2024-03-02T12:42:59;14.70;80.00
15483;DHT22;7843;50.330;7.312;2024-03-02T12:45:26;14.60;80.20
15483;DHT22;7843;50.330;7.312;2024-03-02T12:47:53;14.40;80.20
15483;DHT22;7843;50.330;7.312;2024-03-02T12:50:20;14.40;80.80
15483;DHT22;7843;50.330;7.312;2024-03-02T12:52:53;14.40;80.20
15483;DHT22;7843;50.330;7.312;2024-03-02T12:55:21;14.50;80.40
15483;DHT22;7843;50.330;7.312;2024-03-02T12:57:52;14.70;79.80
15483;DHT22;7843;50.330;7.312;2024-03-02T13:00:21;14.70;79.00
15483;DHT22;7843;50.330;7.312;2024-03-02T13:02:48;14.60;79.20
15483;DHT22;7843;50.330;7.312;2024-03-02T13:05:17;14.40;79.10
15483;DHT22;7843;50.330;7.312;2024-03-02T13:07:47;14.30;79.70
15483;DHT22;7843;50.330;7.312;2024-03-02T13:10:14;14.50;79.20
15483;DHT22;7843;50.330;7.312;2024-03-02T13:12:41;14.70;79.00
15483;DHT22;7843;50.330;7.312;2024-03-02T13:15:08;15.00;77.60
15483;DHT22;7843;50.330;7.312;2024-03-02T13:17:36;15.10;77.70
15483;DHT22;7843;50.330;7.312;2024-03-02T13:20:03;15.50;76.60
15483;DHT22;7843;50.330;7.312;2024-03-02T13:22:36;15.60;76.20
15483;DHT22;7843;50.330;7.312;2024-03-02T13:25:03;15.60;75.80
15483;DHT22;7843;50.330;7.312;2024-03-02T13:27:31;15.40;75.90
15483;DHT22;7843;50.330;7.312;2024-03-02T13:30:05;15.20;76.60
15483;DHT22;7843;50.330;7.312;2024-03-02T13:32:35;15.00;76.20
15483;DHT22;7843;50.330;7.312;2024-03-02T13:35:01;14.70;77.30
15483;DHT22;7843;50.330;7.312;2024-03-02T13:37:29;14.40;78.10
15483;DHT22;7843;50.330;7.312;2024-03-02T13:39:56;14.20;78.60
15483;DHT22;7843;50.330;7.312;2024-03-02T13:42:23;14.00;79.50
15483;DHT22;7843;50.330;7.312;2024-03-02T13:44:49;13.90;79.80
15483;DHT22;7843;50.330;7.312;2024-03-02T13:47:17;13.90;80.00
15483;DHT22;7843;50.330;7.312;2024-03-02T13:49:44;14.00;80.10
15483;DHT22;7843;50.330;7.312;2024-03-02T13:52:13;14.20;80.00
15483;DHT22;7843;50.330;7.312;2024-03-02T13:54:40;14.40;80.10
15483;DHT22;7843;50.330;7.312;2024-03-02T13:57:09;14.60;80.20
15483;DHT22;7843;50.330;7.312;2024-03-02T13:59:36;14.60;79.70
15483;DHT22;7843;50.330;7.312;2024-03-02T14:02:04;14.50;79.40
15483;DHT22;7843;50.330;7.312;2024-03-02T14:04:35;14.30;80.20
15483;DHT22;7843;50.330;7.312;2024-03-02T14:07:03;14.10;80.70
15483;DHT22;7843;50.330;7.312;2024-03-02T14:09:29;13.90;81.60
15483;DHT22;7843;50.330;7.312;2024-03-02T14:11:56;13.90;81.80
15483;DHT22;7843;50.330;7.312;2024-03-02T14:14:23;13.80;82.10
15483;DHT22;7843;50.330;7.312;2024-03-02T14:16:50;13.70;82.10
15483;DHT22;7843;50.330;7.312;2024-03-02T14:19:17;13.70;81.90
15483;DHT22;7843;50.330;7.312;2024-03-02T14:21:44;13.50;82.60
15483;DHT22;7843;50.330;7.312;2024-03-02T14:24:11;13.40;82.40
15483;DHT22;7843;50.330;7.312;2024-03-02T14:26:37;13.40;82.90
15483;DHT22;7843;50.330;7.312;2024-03-02T14:29:04;13.30;83.50
15483;DHT22;7843;50.330;7.312;2024-03-02T14:31:32;13.30;83.30
15483;DHT22;7843;50.330;7.312;2024-03-02T14:33:59;13.20;83.70
15483;DHT22;7843;50.330;7.312;2024-03-02T14:36:26;13.20;83.80
15483;DHT22;7843;50.330;7.312;2024-03-02T14:38:54;13.20;83.90
15483;DHT22;7843;50.330;7.312;2024-03-02T14:41:21;13.20;84.40
15483;DHT22;7843;50.330;7.312;2024-03-02T14:43:48;13.10;84.40
15483;DHT22;7843;50.330;7.312;2024-03-02T14:46:16;13.10;84.60
15483;DHT22;7843;50.330;7.312;2024-03-02T14:48:44;13.10;84.60
15483;DHT22;7843;50.330;7.312;2024-03-02T14:51:12;13.10;84.60
15483;DHT22;7843;50.330;7.312;2024-03-02T14:53:39;13.00;84.20
15483;DHT22;7843;50.330;7.312;2024-03-02T14:56:06;13.10;84.80
15483;DHT22;7843;50.330;7.312;2024-03-02T14:58:33;13.20;84.70
15483;DHT22;7843;50.330;7.312;2024-03-02T15:01:03;13.30;84.10
15483;DHT22;7843;50.330;7.312;2024-03-02T15:03:30;13.40;83.90
15483;DHT22;7843;50.330;7.312;2024-03-02T15:05:57;13.50;84.00
15483;DHT22;7843;50.330;7.312;2024-03-02T15:08:23;13.50;84.00
15483;DHT22;7843;50.330;7.312;2024-03-02T15:10:50;13.40;83.90
15483;DHT22;7843;50.330;7.312;2024-03-02T15:13:17;13.40;84.10
15483;DHT22;7843;50.330;7.312;2024-03-02T15:15:44;13.30;84.10
15483;DHT22;7843;50.330;7.312;2024-03-02T15:18:11;13.20;84.40
15483;DHT22;7843;50.330;7.312;2024-03-02T15:20:37;13.10;84.50
15483;DHT22;7843;50.330;7.312;2024-03-02T15:23:04;13.00;84.70
15483;DHT22;7843;50.330;7.312;2024-03-02T15:25:31;12.90;85.40
15483;DHT22;7843;50.330;7.312;2024-03-02T15:27:58;12.90;85.90
15483;DHT22;7843;50.330;7.312;2024-03-02T15:30:24;12.90;85.90
15483;DHT22;7843;50.330;7.312;2024-03-02T15:32:51;12.90;85.80
15483;DHT22;7843;50.330;7.312;2024-03-02T15:35:18;12.90;85.90
15483;DHT22;7843;50.330;7.312;2024-03-02T15:37:45;12.90;86.10
15483;DHT22;7843;50.330;7.312;2024-03-02T15:40:11;12.90;86.50
15483;DHT22;7843;50.330;7.312;2024-03-02T15:42:38;12.90;86.30
15483;DHT22;7843;50.330;7.312;2024-03-02T15:45:05;13.00;86.00
15483;DHT22;7843;50.330;7.312;2024-03-02T15:47:33;12.90;86.10
15483;DHT22;7843;50.330;7.312;2024-03-02T15:50:01;12.90;86.30
15483;DHT22;7843;50.330;7.312;2024-03-02T15:52:29;12.80;86.70
15483;DHT22;7843;50.330;7.312;2024-03-02T15:54:55;12.70;87.30
15483;DHT22;7843;50.330;7.312;2024-03-02T15:57:22;12.70;87.10
15483;DHT22;7843;50.330;7.312;2024-03-02T15:59:49;12.70;87.10
15483;DHT22;7843;50.330;7.312;2024-03-02T16:02:16;12.80;86.90
15483;DHT22;7843;50.330;7.312;2024-03-02T16:04:43;12.80;86.60